createdAt,value
2023-02-11T00:04:12.610Z,3.17
2023-02-11T00:09:12.546Z,3.20
2023-02-11T00:14:12.478Z,3.23
2023-02-11T00:19:12.384Z,3.26
2023-02-11T00:24:12.347Z,3.28
2023-02-11T00:29:12.310Z,3.30
2023-02-11T00:34:12.236Z,3.32
2023-02-11T00:39:12.140Z,3.33
2023-02-11T00:44:12.123Z,3.34
2023-02-11T00:49:12.021Z,3.35
2023-02-11T00:54:11.979Z,3.37
2023-02-11T00:59:11.866Z,3.38
2023-02-11T01:04:11.848Z,3.40
2023-02-11T01:09:29.011Z,3.39
2023-02-11T01:14:21.405Z,3.35
2023-02-11T01:19:21.336Z,3.31
2023-02-11T01:24:21.262Z,3.30
2023-02-11T01:29:21.213Z,3.31
2023-02-11T01:34:21.138Z,3.32
2023-02-11T01:39:21.089Z,3.32
2023-02-11T01:44:20.990Z,3.31
2023-02-11T01:49:21.006Z,3.28
2023-02-11T01:54:20.872Z,3.23
2023-02-11T01:59:20.837Z,3.17
2023-02-11T02:04:20.761Z,3.12
2023-02-11T02:09:20.716Z,3.06
2023-02-11T02:14:20.613Z,2.99
2023-02-11T02:19:20.612Z,2.88
2023-02-11T02:24:20.485Z,2.77
2023-02-11T02:29:20.437Z,2.68
2023-02-11T02:34:20.355Z,2.60
2023-02-11T02:39:20.331Z,2.55
2023-02-11T02:44:20.221Z,2.52
2023-02-11T02:49:20.187Z,2.49
2023-02-11T02:54:20.093Z,2.45
2023-02-11T02:59:20.080Z,2.43
2023-02-11T03:04:19.988Z,2.40
2023-02-11T03:09:20.582Z,2.37
2023-02-11T03:14:19.852Z,2.35
2023-02-11T03:19:19.810Z,2.33
2023-02-11T03:24:19.714Z,2.31
2023-02-11T03:29:19.641Z,2.31
2023-02-11T03:34:19.583Z,2.30
2023-02-11T03:39:19.550Z,2.28
2023-02-11T03:44:19.497Z,2.26
2023-02-11T03:49:19.419Z,2.24
2023-02-11T03:54:19.339Z,2.21
2023-02-11T03:59:19.335Z,2.17
2023-02-11T04:04:19.199Z,2.11
2023-02-11T04:09:19.139Z,2.05
2023-02-11T04:14:19.091Z,1.98
2023-02-11T04:19:19.029Z,1.90
2023-02-11T04:24:18.949Z,1.83
2023-02-11T04:29:18.891Z,1.79
2023-02-11T04:34:18.821Z,1.77
2023-02-11T04:39:18.772Z,1.78
2023-02-11T04:44:18.673Z,1.81
2023-02-11T04:49:18.653Z,1.85
2023-02-11T04:54:18.558Z,1.89
2023-02-11T04:59:18.519Z,1.92
2023-02-11T05:04:18.480Z,1.93
2023-02-11T05:09:18.402Z,1.93
2023-02-11T05:14:18.302Z,1.91
2023-02-11T05:19:34.311Z,1.86
2023-02-11T05:24:26.720Z,1.75
2023-02-11T05:29:26.659Z,1.65
2023-02-11T05:34:26.593Z,1.58
2023-02-11T05:39:26.512Z,1.52
2023-02-11T05:44:26.456Z,1.47
2023-02-11T05:49:26.404Z,1.41
2023-02-11T05:54:26.305Z,1.37
2023-02-11T05:59:26.976Z,1.36
2023-02-11T06:04:26.167Z,1.39
2023-02-11T06:09:26.148Z,1.46
2023-02-11T06:14:26.054Z,1.55
2023-02-11T06:19:25.991Z,1.65
2023-02-11T06:24:48.113Z,1.77
2023-02-11T06:29:26.884Z,1.88
2023-02-11T06:34:25.803Z,1.98
2023-02-11T06:39:25.744Z,2.08
2023-02-11T06:44:25.682Z,2.17
2023-02-11T06:49:25.649Z,2.26
2023-02-11T06:54:25.638Z,2.35
2023-02-11T06:59:25.516Z,2.42
2023-02-11T07:04:25.440Z,2.50
2023-02-11T07:09:25.370Z,2.57
2023-02-11T07:14:25.311Z,2.66
2023-02-11T07:19:25.256Z,2.76
2023-02-11T07:24:25.202Z,2.88
2023-02-11T07:29:25.118Z,2.99
2023-02-11T07:34:25.144Z,3.11
2023-02-11T07:39:24.999Z,3.23
2023-02-11T07:44:24.878Z,3.35
2023-02-11T07:49:24.847Z,3.47
2023-02-11T07:54:24.758Z,3.59
2023-02-11T07:59:24.742Z,3.71
2023-02-11T08:04:24.647Z,3.83
2023-02-11T08:09:24.568Z,3.95
2023-02-11T08:14:24.545Z,4.08
2023-02-11T08:19:24.466Z,4.20
2023-02-11T08:24:24.394Z,4.30
2023-02-11T08:29:24.314Z,4.36
2023-02-11T08:34:24.260Z,4.40
2023-02-11T08:39:24.214Z,4.42
2023-02-11T08:44:24.131Z,4.44
2023-02-11T08:49:24.072Z,4.48
2023-02-11T08:54:23.999Z,4.53
2023-02-11T08:59:23.926Z,4.61
2023-02-11T09:04:23.859Z,4.71
2023-02-11T09:09:23.815Z,4.81
2023-02-11T09:14:23.733Z,4.94
2023-02-11T09:19:23.737Z,5.09
2023-02-11T09:24:23.610Z,5.24
2023-02-11T09:29:23.558Z,5.38
2023-02-11T09:34:23.503Z,5.52
2023-02-11T09:39:23.474Z,5.67
2023-02-11T09:44:23.390Z,5.82
2023-02-11T09:49:23.281Z,5.96
2023-02-11T09:54:23.262Z,6.08
2023-02-11T09:59:23.163Z,6.14
2023-02-11T10:04:23.166Z,6.15
2023-02-11T10:09:23.043Z,6.14
2023-02-11T10:14:23.081Z,6.12
2023-02-11T10:19:22.912Z,6.11
2023-02-11T10:24:22.837Z,6.10
2023-02-11T10:29:22.778Z,6.12
2023-02-11T10:34:22.716Z,6.16
2023-02-11T10:39:22.638Z,6.22
2023-02-11T10:44:22.591Z,6.32
2023-02-11T10:49:22.513Z,6.45
2023-02-11T10:54:22.433Z,6.62
2023-02-11T10:59:22.411Z,6.81
2023-02-11T11:04:22.389Z,6.98
2023-02-11T11:09:22.258Z,7.13
2023-02-11T11:14:22.169Z,7.25
2023-02-11T11:19:22.284Z,7.32
2023-02-11T11:24:22.091Z,7.35
2023-02-11T11:29:22.058Z,7.34
2023-02-11T11:34:21.913Z,7.31
2023-02-11T11:39:21.876Z,7.30
2023-02-11T11:44:21.788Z,7.32
2023-02-11T11:49:21.731Z,7.35
2023-02-11T11:54:21.649Z,7.37
2023-02-11T11:59:21.590Z,7.41
2023-02-11T12:04:21.498Z,7.47
2023-02-11T12:09:22.507Z,7.51
2023-02-11T12:14:21.480Z,7.52
2023-02-11T12:19:21.364Z,7.49
2023-02-11T12:24:21.216Z,7.44
2023-02-11T12:29:21.204Z,7.39
2023-02-11T12:34:21.129Z,7.34
2023-02-11T12:39:21.073Z,7.30
2023-02-11T12:44:20.982Z,7.26
2023-02-11T12:49:20.918Z,7.22
2023-02-11T12:54:20.873Z,7.20
2023-02-11T12:59:20.814Z,7.19
2023-02-11T13:04:20.749Z,7.17
2023-02-11T13:09:20.716Z,7.18
2023-02-11T13:14:20.619Z,7.22
2023-02-11T13:19:20.526Z,7.27
2023-02-11T13:24:20.477Z,7.31
2023-02-11T13:29:20.415Z,7.33
2023-02-11T13:34:20.315Z,7.33
2023-02-11T13:39:20.271Z,7.31
2023-02-11T13:44:20.200Z,7.28
2023-02-11T13:49:20.129Z,7.25
2023-02-11T13:54:20.105Z,7.23
2023-02-11T13:59:20.017Z,7.21
2023-02-11T14:04:19.921Z,7.20
2023-02-11T14:09:19.878Z,7.20
2023-02-11T14:14:19.813Z,7.20
2023-02-11T14:19:19.774Z,7.19
2023-02-11T14:24:19.656Z,7.18
2023-02-11T14:29:19.616Z,7.16
2023-02-11T14:34:19.596Z,7.13
2023-02-11T14:39:19.525Z,7.10
2023-02-11T14:44:19.466Z,7.07
2023-02-11T14:49:19.367Z,7.06
2023-02-11T14:54:19.239Z,7.07
2023-02-11T14:59:19.258Z,7.09
2023-02-11T15:04:19.139Z,7.09
2023-02-11T15:09:19.086Z,7.08
2023-02-11T15:14:19.010Z,7.05
2023-02-11T15:19:18.997Z,7.03
2023-02-11T15:24:18.888Z,6.99
2023-02-11T15:29:18.937Z,6.95
2023-02-11T15:34:18.911Z,6.90
2023-02-11T15:39:18.687Z,6.85
2023-02-11T15:44:18.679Z,6.81
2023-02-11T15:49:18.557Z,6.77
2023-02-11T15:54:18.473Z,6.74
2023-02-11T15:59:18.426Z,6.72
2023-02-11T16:04:18.381Z,6.69
2023-02-11T16:09:18.299Z,6.65
2023-02-11T16:14:18.211Z,6.60
2023-02-11T16:19:18.162Z,6.56
2023-02-11T16:24:18.118Z,6.51
2023-02-11T16:29:18.053Z,6.47
2023-02-11T16:34:17.990Z,6.44
2023-02-11T16:39:17.911Z,6.41
2023-02-11T16:44:17.837Z,6.37
2023-02-11T16:49:17.917Z,6.35
2023-02-11T16:54:17.699Z,6.33
2023-02-11T16:59:17.633Z,6.32
2023-02-11T17:04:17.671Z,6.32
2023-02-11T17:09:17.521Z,6.31
2023-02-11T17:14:17.435Z,6.31
2023-02-11T17:19:17.368Z,6.30
2023-02-11T17:24:17.322Z,6.29
2023-02-11T17:29:17.233Z,6.27
2023-02-11T17:34:17.149Z,6.24
2023-02-11T17:39:17.118Z,6.20
2023-02-11T17:44:17.007Z,6.17
2023-02-11T17:49:16.990Z,6.14
2023-02-11T17:54:16.894Z,6.12
2023-02-11T17:59:16.855Z,6.10
2023-02-11T18:04:16.887Z,6.07
2023-02-11T18:09:16.745Z,6.04
2023-02-11T18:14:16.641Z,6.03
2023-02-11T18:19:16.586Z,6.02
2023-02-11T18:24:16.507Z,6.02
2023-02-11T18:29:16.501Z,6.02
2023-02-11T18:34:16.373Z,6.02
2023-02-11T18:39:16.345Z,6.01
2023-02-11T18:44:16.239Z,6.00
2023-02-11T18:49:16.211Z,5.99
2023-02-11T18:54:16.268Z,5.97
2023-02-11T18:59:16.061Z,5.96
2023-02-11T19:04:16.064Z,5.94
2023-02-11T19:09:15.913Z,5.92
2023-02-11T19:14:15.853Z,5.91
2023-02-11T19:19:15.789Z,5.90
2023-02-11T19:24:15.703Z,5.88
2023-02-11T19:29:15.662Z,5.85
2023-02-11T19:34:15.577Z,5.82
2023-02-11T19:39:15.531Z,5.79
2023-02-11T19:44:15.457Z,5.77
2023-02-11T19:49:15.430Z,5.75
2023-02-11T19:54:15.301Z,5.74
2023-02-11T19:59:15.260Z,5.73
2023-02-11T20:04:15.169Z,5.73
2023-02-11T20:09:15.137Z,5.74
2023-02-11T20:14:15.070Z,5.73
2023-02-11T20:19:14.997Z,5.72
2023-02-11T20:24:14.943Z,5.70
2023-02-11T20:29:14.869Z,5.69
2023-02-11T20:34:15.004Z,5.67
2023-02-11T20:39:15.099Z,5.66
2023-02-11T20:44:14.718Z,5.66
2023-02-11T20:49:14.560Z,5.65
2023-02-11T20:54:14.533Z,5.66
2023-02-11T20:59:14.479Z,5.66
2023-02-11T21:04:14.469Z,5.67
2023-02-11T21:09:14.397Z,5.68
2023-02-11T21:14:14.311Z,5.68
2023-02-11T21:19:14.215Z,5.69
2023-02-11T21:24:14.176Z,5.69
2023-02-11T21:29:14.083Z,5.69
2023-02-11T21:34:13.967Z,5.69
2023-02-11T21:39:13.935Z,5.69
2023-02-11T21:44:13.842Z,5.69
2023-02-11T21:49:13.797Z,5.69
2023-02-11T21:54:13.728Z,5.70
2023-02-11T21:59:13.676Z,5.71
2023-02-11T22:04:13.600Z,5.71
2023-02-11T22:09:13.551Z,5.71
2023-02-11T22:14:13.463Z,5.70
2023-02-11T22:19:13.409Z,5.70
2023-02-11T22:24:13.337Z,5.69
2023-02-11T22:29:13.344Z,5.67
2023-02-11T22:34:13.180Z,5.65
2023-02-11T22:39:13.142Z,5.64
2023-02-11T22:44:13.196Z,5.63
2023-02-11T22:49:12.993Z,5.62
2023-02-11T22:54:12.913Z,5.61
2023-02-11T22:59:12.854Z,5.59
2023-02-11T23:04:12.807Z,5.55
2023-02-11T23:09:12.717Z,5.49
2023-02-11T23:14:12.678Z,5.44
2023-02-11T23:19:12.616Z,5.38
2023-02-11T23:24:12.528Z,5.35
2023-02-11T23:29:12.462Z,5.34
2023-02-11T23:34:12.387Z,5.34
2023-02-11T23:39:12.346Z,5.36
2023-02-11T23:44:12.236Z,5.38
2023-02-11T23:49:12.216Z,5.39
2023-02-11T23:54:12.131Z,5.41
2023-02-11T23:59:12.078Z,5.43
